Pagina principale
METAR-TAF:

METAR-TAF

Aeroporti :

Rarotonga, Isole Cook

latitudine: 21-12S, longitudine: 159-49W, altezza: 7 m

Osservazione

Il bollettino è stato emesso 32 minuti fa, alle 17:00 UTC
Vento 6 kt da est
Temperature 25°C
Umidità 69%
Pressione 1013 hPa
Visibilità 10 km o più
Poco nuvoloso ad un'altezza di 2200 ft

METAR: NCRG 191700Z 10006KT 9999 FEW022 25/19 Q1013

Ora: 07:32 (17:32 UTC)

Previsione

Il bollettino è stato emesso 6 ore e 29 minuti fa, alle 11:03 UTC
Previsione valida dal 19 alle 12 UTC al 20 alle 12 UTC
Vento 10 kt da est/sud-est
Visibilità 10 km o più
Nubi sparse ad un'altezza di 2000 ft

TAF: NCRG 191103Z 1912/2012 12010KT 9999 SCT020

Osservazioni e previsioni meteorologiche di più di 4000 aeroporti (messaggi METAR e TAF).

Le stazioni disponibili sono rappresentate dai dischi gialli e rossi sulla carta.

Puntare il mouse per vedere il nome della stazione.

Clicca sopra per visualizzare le osservazioni e previsioni meteorologiche.

Per cambiare la mappa : fare clic sui pulsanti verdi con una croce nera per ingrandire, il pulsante verde con un trattino per diminuire, o sulla freccia verde per le mappe adiacenti.


METAR-TAF: